ENHD/HAU METAR and TAF weather

Enter ICAO airport designator
Station Type Date Time Source
ENHD METAR 2020/07/04 08:20 UTC NOAA

ENHD 040820Z 32004KT CAVOK 15/10 Q1001


Station Type Date Time Source
ENHD Decoded METAR 2020/07/04 08:20 UTC NOAA

Haugesund / Karmoy, Norway (ENHD) 59-21N 005-13E 24M
Jul 04, 2020 - 04:20 AM EDT / 2020.07.04 0820 UTC
Wind: from the NW (320 degrees) at 5 MPH (4 KT):0
Visibility: greater than 7 mile(s):0
Temperature: 59 F (15 C)
Dew Point: 50 F (10 C)
Relative Humidity: 72%
Pressure (altimeter): 29.56 in. Hg (1001 hPa)
ob: ENHD 040820Z 32004KT CAVOK 15/10 Q1001
cycle: 8

Station Type Date Time Source
ENHD TAF UTC NOAA

Error!

Example: see airport list